sensor_id;sensor_type;location;lat;lon;timestamp;P1;durP1;ratioP1;P2;durP2;ratioP2
19946;SDS011;10135;50.702;7.276;2024-01-06T06:32:02;5.50;;;3.83;;
19946;SDS011;10135;50.702;7.276;2024-01-06T06:34:03;4.10;;;3.77;;
19946;SDS011;10135;50.702;7.276;2024-01-06T06:36:04;4.60;;;3.80;;
19946;SDS011;10135;50.702;7.276;2024-01-06T06:38:05;4.50;;;4.10;;
19946;SDS011;10135;50.702;7.276;2024-01-06T06:40:06;4.70;;;3.90;;
19946;SDS011;10135;50.702;7.276;2024-01-06T06:42:07;4.77;;;4.20;;
19946;SDS011;10135;50.702;7.276;2024-01-06T06:44:08;4.27;;;3.97;;
19946;SDS011;10135;50.702;7.276;2024-01-06T06:46:09;5.37;;;4.37;;
19946;SDS011;10135;50.702;7.276;2024-01-06T06:48:10;5.73;;;5.13;;
19946;SDS011;10135;50.702;7.276;2024-01-06T06:50:11;6.37;;;5.17;;
19946;SDS011;10135;50.702;7.276;2024-01-06T06:52:11;5.63;;;5.07;;
19946;SDS011;10135;50.702;7.276;2024-01-06T06:54:13;9.10;;;5.80;;
19946;SDS011;10135;50.702;7.276;2024-01-06T06:56:16;7.73;;;5.87;;
19946;SDS011;10135;50.702;7.276;2024-01-06T06:58:17;8.33;;;6.40;;
19946;SDS011;10135;50.702;7.276;2024-01-06T07:00:18;9.93;;;6.70;;
19946;SDS011;10135;50.702;7.276;2024-01-06T07:02:19;10.53;;;6.83;;
19946;SDS011;10135;50.702;7.276;2024-01-06T07:04:19;10.67;;;7.23;;
19946;SDS011;10135;50.702;7.276;2024-01-06T07:06:20;13.17;;;8.00;;
19946;SDS011;10135;50.702;7.276;2024-01-06T07:08:21;14.10;;;8.50;;
19946;SDS011;10135;50.702;7.276;2024-01-06T07:10:22;15.10;;;8.97;;
19946;SDS011;10135;50.702;7.276;2024-01-06T07:12:22;15.17;;;9.80;;
19946;SDS011;10135;50.702;7.276;2024-01-06T07:14:23;15.60;;;8.90;;
19946;SDS011;10135;50.702;7.276;2024-01-06T07:16:24;19.27;;;10.23;;
19946;SDS011;10135;50.702;7.276;2024-01-06T07:18:24;16.03;;;9.90;;
19946;SDS011;10135;50.702;7.276;2024-01-06T07:20:26;18.80;;;10.33;;
19946;SDS011;10135;50.702;7.276;2024-01-06T07:22:26;17.87;;;9.93;;
19946;SDS011;10135;50.702;7.276;2024-01-06T07:24:27;17.63;;;9.80;;
19946;SDS011;10135;50.702;7.276;2024-01-06T07:26:27;17.40;;;10.23;;
19946;SDS011;10135;50.702;7.276;2024-01-06T07:28:28;15.57;;;9.07;;
19946;SDS011;10135;50.702;7.276;2024-01-06T07:30:29;16.77;;;10.10;;
19946;SDS011;10135;50.702;7.276;2024-01-06T07:32:30;18.87;;;10.00;;
19946;SDS011;10135;50.702;7.276;2024-01-06T07:34:31;16.07;;;9.43;;
19946;SDS011;10135;50.702;7.276;2024-01-06T07:36:32;17.00;;;10.00;;
19946;SDS011;10135;50.702;7.276;2024-01-06T07:38:32;15.33;;;9.63;;
19946;SDS011;10135;50.702;7.276;2024-01-06T07:40:33;16.83;;;9.83;;
19946;SDS011;10135;50.702;7.276;2024-01-06T07:42:34;16.33;;;9.37;;
19946;SDS011;10135;50.702;7.276;2024-01-06T07:44:35;15.93;;;9.17;;
19946;SDS011;10135;50.702;7.276;2024-01-06T07:46:35;14.23;;;8.90;;
19946;SDS011;10135;50.702;7.276;2024-01-06T07:48:37;15.97;;;8.47;;
19946;SDS011;10135;50.702;7.276;2024-01-06T07:50:37;14.90;;;8.83;;
19946;SDS011;10135;50.702;7.276;2024-01-06T07:52:38;14.83;;;8.67;;
19946;SDS011;10135;50.702;7.276;2024-01-06T07:54:38;13.20;;;8.43;;
19946;SDS011;10135;50.702;7.276;2024-01-06T07:56:39;12.17;;;7.83;;
19946;SDS011;10135;50.702;7.276;2024-01-06T07:58:40;11.73;;;7.67;;
19946;SDS011;10135;50.702;7.276;2024-01-06T08:00:40;15.80;;;8.93;;
19946;SDS011;10135;50.702;7.276;2024-01-06T08:02:41;15.73;;;9.37;;
19946;SDS011;10135;50.702;7.276;2024-01-06T08:04:42;15.37;;;9.00;;
19946;SDS011;10135;50.702;7.276;2024-01-06T08:06:42;14.90;;;8.80;;
19946;SDS011;10135;50.702;7.276;2024-01-06T08:08:43;14.40;;;9.20;;
19946;SDS011;10135;50.702;7.276;2024-01-06T08:10:45;14.53;;;8.67;;
19946;SDS011;10135;50.702;7.276;2024-01-06T08:12:46;12.77;;;8.30;;
19946;SDS011;10135;50.702;7.276;2024-01-06T08:14:48;14.77;;;9.10;;
19946;SDS011;10135;50.702;7.276;2024-01-06T08:16:48;16.07;;;8.60;;
19946;SDS011;10135;50.702;7.276;2024-01-06T08:18:49;14.23;;;8.30;;
19946;SDS011;10135;50.702;7.276;2024-01-06T08:20:49;13.80;;;7.87;;
19946;SDS011;10135;50.702;7.276;2024-01-06T08:22:50;14.43;;;8.37;;
19946;SDS011;10135;50.702;7.276;2024-01-06T08:24:51;13.67;;;8.57;;
19946;SDS011;10135;50.702;7.276;2024-01-06T08:26:52;13.53;;;7.90;;
19946;SDS011;10135;50.702;7.276;2024-01-06T08:28:52;12.97;;;8.20;;
19946;SDS011;10135;50.702;7.276;2024-01-06T08:30:53;12.40;;;7.67;;
19946;SDS011;10135;50.702;7.276;2024-01-06T08:32:54;14.53;;;8.23;;
19946;SDS011;10135;50.702;7.276;2024-01-06T08:34:54;13.70;;;7.63;;
19946;SDS011;10135;50.702;7.276;2024-01-06T08:36:55;14.30;;;8.67;;
19946;SDS011;10135;50.702;7.276;2024-01-06T08:38:56;15.20;;;7.70;;
19946;SDS011;10135;50.702;7.276;2024-01-06T08:40:56;15.80;;;8.30;;
19946;SDS011;10135;50.702;7.276;2024-01-06T08:42:57;14.93;;;8.37;;
19946;SDS011;10135;50.702;7.276;2024-01-06T08:44:57;14.57;;;8.57;;
19946;SDS011;10135;50.702;7.276;2024-01-06T08:46:58;13.73;;;8.17;;
19946;SDS011;10135;50.702;7.276;2024-01-06T08:48:59;15.07;;;8.33;;
19946;SDS011;10135;50.702;7.276;2024-01-06T08:51:00;16.40;;;8.57;;
19946;SDS011;10135;50.702;7.276;2024-01-06T08:53:01;14.87;;;8.33;;
19946;SDS011;10135;50.702;7.276;2024-01-06T08:55:01;14.13;;;8.60;;
19946;SDS011;10135;50.702;7.276;2024-01-06T08:57:02;15.33;;;8.10;;
19946;SDS011;10135;50.702;7.276;2024-01-06T08:59:03;14.57;;;8.33;;
19946;SDS011;10135;50.702;7.276;2024-01-06T09:01:04;16.77;;;8.60;;
19946;SDS011;10135;50.702;7.276;2024-01-06T09:03:04;14.30;;;8.43;;
19946;SDS011;10135;50.702;7.276;2024-01-06T09:05:05;14.47;;;8.37;;
19946;SDS011;10135;50.702;7.276;2024-01-06T09:07:06;16.27;;;8.10;;
19946;SDS011;10135;50.702;7.276;2024-01-06T09:09:07;13.60;;;8.17;;
19946;SDS011;10135;50.702;7.276;2024-01-06T09:11:09;11.13;;;7.00;;
19946;SDS011;10135;50.702;7.276;2024-01-06T09:13:10;13.77;;;7.93;;
19946;SDS011;10135;50.702;7.276;2024-01-06T09:15:11;11.97;;;7.60;;
19946;SDS011;10135;50.702;7.276;2024-01-06T09:17:11;14.50;;;7.90;;
19946;SDS011;10135;50.702;7.276;2024-01-06T09:19:13;13.80;;;7.93;;
19946;SDS011;10135;50.702;7.276;2024-01-06T09:21:14;11.80;;;7.77;;
19946;SDS011;10135;50.702;7.276;2024-01-06T09:23:15;16.77;;;8.33;;
19946;SDS011;10135;50.702;7.276;2024-01-06T09:25:16;14.30;;;8.00;;
19946;SDS011;10135;50.702;7.276;2024-01-06T09:27:16;14.30;;;7.87;;
19946;SDS011;10135;50.702;7.276;2024-01-06T09:29:17;14.03;;;7.67;;
19946;SDS011;10135;50.702;7.276;2024-01-06T09:31:18;12.60;;;7.80;;
19946;SDS011;10135;50.702;7.276;2024-01-06T09:33:19;13.67;;;7.67;;
19946;SDS011;10135;50.702;7.276;2024-01-06T09:35:19;12.67;;;7.63;;
19946;SDS011;10135;50.702;7.276;2024-01-06T09:37:20;16.00;;;8.80;;
19946;SDS011;10135;50.702;7.276;2024-01-06T09:39:22;13.73;;;7.90;;
19946;SDS011;10135;50.702;7.276;2024-01-06T09:41:22;12.47;;;7.60;;
19946;SDS011;10135;50.702;7.276;2024-01-06T09:43:24;10.80;;;7.07;;
19946;SDS011;10135;50.702;7.276;2024-01-06T09:45:26;12.20;;;7.30;;
19946;SDS011;10135;50.702;7.276;2024-01-06T09:47:26;15.87;;;7.60;;
19946;SDS011;10135;50.702;7.276;2024-01-06T09:49:31;11.53;;;7.00;;
19946;SDS011;10135;50.702;7.276;2024-01-06T09:51:37;10.37;;;6.90;;
19946;SDS011;10135;50.702;7.276;2024-01-06T09:53:42;10.67;;;7.07;;
19946;SDS011;10135;50.702;7.276;2024-01-06T09:55:49;11.93;;;7.00;;
19946;SDS011;10135;50.702;7.276;2024-01-06T09:57:52;13.00;;;7.50;;
19946;SDS011;10135;50.702;7.276;2024-01-06T09:59:55;10.80;;;7.00;;
19946;SDS011;10135;50.702;7.276;2024-01-06T10:01:56;12.17;;;6.97;;
19946;SDS011;10135;50.702;7.276;2024-01-06T10:03:57;10.17;;;6.80;;
19946;SDS011;10135;50.702;7.276;2024-01-06T10:05:58;10.07;;;6.50;;
19946;SDS011;10135;50.702;7.276;2024-01-06T10:08:03;11.83;;;7.07;;
19946;SDS011;10135;50.702;7.276;2024-01-06T10:10:04;10.00;;;6.87;;
19946;SDS011;10135;50.702;7.276;2024-01-06T10:12:08;10.07;;;7.13;;
19946;SDS011;10135;50.702;7.276;2024-01-06T10:14:09;10.43;;;6.80;;
19946;SDS011;10135;50.702;7.276;2024-01-06T10:16:10;11.87;;;6.93;;
19946;SDS011;10135;50.702;7.276;2024-01-06T10:18:10;11.53;;;7.00;;
19946;SDS011;10135;50.702;7.276;2024-01-06T10:20:12;13.03;;;7.40;;
19946;SDS011;10135;50.702;7.276;2024-01-06T10:22:15;11.20;;;7.03;;
19946;SDS011;10135;50.702;7.276;2024-01-06T10:24:17;11.73;;;7.50;;
19946;SDS011;10135;50.702;7.276;2024-01-06T10:26:18;12.27;;;7.77;;
19946;SDS011;10135;50.702;7.276;2024-01-06T10:28:20;12.70;;;6.80;;
19946;SDS011;10135;50.702;7.276;2024-01-06T10:30:24;11.77;;;6.93;;
19946;SDS011;10135;50.702;7.276;2024-01-06T10:32:25;10.60;;;6.70;;
19946;SDS011;10135;50.702;7.276;2024-01-06T10:34:28;10.20;;;6.43;;
19946;SDS011;10135;50.702;7.276;2024-01-06T10:36:32;11.23;;;7.03;;
19946;SDS011;10135;50.702;7.276;2024-01-06T10:38:33;10.03;;;6.30;;
19946;SDS011;10135;50.702;7.276;2024-01-06T10:40:34;11.63;;;6.70;;
19946;SDS011;10135;50.702;7.276;2024-01-06T10:42:35;12.50;;;7.13;;
19946;SDS011;10135;50.702;7.276;2024-01-06T10:44:39;11.67;;;6.80;;
19946;SDS011;10135;50.702;7.276;2024-01-06T10:46:42;12.87;;;7.30;;
19946;SDS011;10135;50.702;7.276;2024-01-06T10:48:44;12.33;;;7.43;;
19946;SDS011;10135;50.702;7.276;2024-01-06T10:50:47;13.93;;;7.37;;
19946;SDS011;10135;50.702;7.276;2024-01-06T10:52:49;11.03;;;7.00;;
19946;SDS011;10135;50.702;7.276;2024-01-06T10:54:51;13.40;;;7.67;;
19946;SDS011;10135;50.702;7.276;2024-01-06T10:56:55;13.27;;;7.57;;
19946;SDS011;10135;50.702;7.276;2024-01-06T10:58:58;13.63;;;7.40;;
19946;SDS011;10135;50.702;7.276;2024-01-06T11:01:03;10.90;;;7.10;;
19946;SDS011;10135;50.702;7.276;2024-01-06T11:03:04;11.90;;;6.70;;
19946;SDS011;10135;50.702;7.276;2024-01-06T11:05:06;13.03;;;7.57;;
19946;SDS011;10135;50.702;7.276;2024-01-06T11:07:07;13.10;;;7.00;;
19946;SDS011;10135;50.702;7.276;2024-01-06T11:09:22;11.97;;;6.23;;
19946;SDS011;10135;50.702;7.276;2024-01-06T11:11:31;10.73;;;6.70;;
19946;SDS011;10135;50.702;7.276;2024-01-06T11:13:32;10.67;;;6.53;;
19946;SDS011;10135;50.702;7.276;2024-01-06T11:15:40;11.07;;;6.23;;
19946;SDS011;10135;50.702;7.276;2024-01-06T11:17:53;9.17;;;6.13;;
19946;SDS011;10135;50.702;7.276;2024-01-06T11:20:04;11.43;;;6.30;;
19946;SDS011;10135;50.702;7.276;2024-01-06T11:22:39;10.97;;;6.23;;
19946;SDS011;10135;50.702;7.276;2024-01-06T11:24:36;8.67;;;6.13;;
19946;SDS011;10135;50.702;7.276;2024-01-06T11:26:39;11.10;;;6.40;;
19946;SDS011;10135;50.702;7.276;2024-01-06T11:28:45;9.07;;;5.73;;
19946;SDS011;10135;50.702;7.276;2024-01-06T11:30:47;10.53;;;6.07;;
19946;SDS011;10135;50.702;7.276;2024-01-06T11:33:08;9.37;;;5.90;;
19946;SDS011;10135;50.702;7.276;2024-01-06T11:35:11;9.67;;;6.20;;
19946;SDS011;10135;50.702;7.276;2024-01-06T11:37:13;10.23;;;6.40;;
19946;SDS011;10135;50.702;7.276;2024-01-06T11:41:50;10.07;;;6.03;;
19946;SDS011;10135;50.702;7.276;2024-01-06T11:43:51;11.20;;;6.00;;
19946;SDS011;10135;50.702;7.276;2024-01-06T11:45:52;7.90;;;5.53;;
19946;SDS011;10135;50.702;7.276;2024-01-06T11:48:01;9.27;;;5.50;;
19946;SDS011;10135;50.702;7.276;2024-01-06T11:50:05;8.83;;;5.60;;
19946;SDS011;10135;50.702;7.276;2024-01-06T11:52:06;8.83;;;5.40;;
19946;SDS011;10135;50.702;7.276;2024-01-06T11:54:07;8.43;;;5.37;;
19946;SDS011;10135;50.702;7.276;2024-01-06T11:56:09;7.77;;;5.10;;
19946;SDS011;10135;50.702;7.276;2024-01-06T11:58:10;9.20;;;5.37;;
19946;SDS011;10135;50.702;7.276;2024-01-06T12:00:11;8.50;;;5.60;;
19946;SDS011;10135;50.702;7.276;2024-01-06T12:02:17;8.90;;;5.77;;
19946;SDS011;10135;50.702;7.276;2024-01-06T12:04:19;8.80;;;6.20;;
19946;SDS011;10135;50.702;7.276;2024-01-06T12:06:22;9.60;;;6.27;;
19946;SDS011;10135;50.702;7.276;2024-01-06T12:08:22;8.10;;;5.40;;
19946;SDS011;10135;50.702;7.276;2024-01-06T12:10:24;7.63;;;5.07;;
19946;SDS011;10135;50.702;7.276;2024-01-06T12:12:27;9.27;;;6.03;;
19946;SDS011;10135;50.702;7.276;2024-01-06T12:14:27;10.03;;;5.80;;
19946;SDS011;10135;50.702;7.276;2024-01-06T12:16:28;10.53;;;5.63;;
19946;SDS011;10135;50.702;7.276;2024-01-06T12:18:30;9.90;;;5.77;;
19946;SDS011;10135;50.702;7.276;2024-01-06T12:20:31;10.50;;;6.10;;
19946;SDS011;10135;50.702;7.276;2024-01-06T12:22:32;9.30;;;5.60;;
19946;SDS011;10135;50.702;7.276;2024-01-06T12:24:32;9.97;;;5.93;;
19946;SDS011;10135;50.702;7.276;2024-01-06T12:26:33;10.30;;;5.87;;
19946;SDS011;10135;50.702;7.276;2024-01-06T12:28:36;10.57;;;6.07;;
19946;SDS011;10135;50.702;7.276;2024-01-06T12:30:38;8.47;;;5.83;;
19946;SDS011;10135;50.702;7.276;2024-01-06T12:32:39;8.93;;;5.70;;
19946;SDS011;10135;50.702;7.276;2024-01-06T12:34:40;8.97;;;5.70;;
19946;SDS011;10135;50.702;7.276;2024-01-06T12:36:41;9.63;;;6.00;;
19946;SDS011;10135;50.702;7.276;2024-01-06T12:38:44;8.77;;;5.60;;
19946;SDS011;10135;50.702;7.276;2024-01-06T12:40:46;10.57;;;5.47;;
19946;SDS011;10135;50.702;7.276;2024-01-06T12:42:46;8.73;;;5.53;;
19946;SDS011;10135;50.702;7.276;2024-01-06T12:44:47;7.33;;;5.43;;
19946;SDS011;10135;50.702;7.276;2024-01-06T12:46:48;9.70;;;5.57;;
19946;SDS011;10135;50.702;7.276;2024-01-06T12:48:49;9.40;;;5.80;;
19946;SDS011;10135;50.702;7.276;2024-01-06T12:50:50;8.53;;;5.60;;
19946;SDS011;10135;50.702;7.276;2024-01-06T12:52:50;8.03;;;5.53;;
19946;SDS011;10135;50.702;7.276;2024-01-06T12:54:51;7.70;;;5.67;;
19946;SDS011;10135;50.702;7.276;2024-01-06T12:56:52;8.57;;;5.57;;
19946;SDS011;10135;50.702;7.276;2024-01-06T12:58:53;8.10;;;5.73;;
19946;SDS011;10135;50.702;7.276;2024-01-06T13:00:54;10.50;;;6.73;;
19946;SDS011;10135;50.702;7.276;2024-01-06T13:02:55;12.00;;;7.03;;
19946;SDS011;10135;50.702;7.276;2024-01-06T13:04:56;9.83;;;6.27;;
19946;SDS011;10135;50.702;7.276;2024-01-06T13:06:56;11.53;;;6.83;;
19946;SDS011;10135;50.702;7.276;2024-01-06T13:08:57;11.10;;;6.83;;
19946;SDS011;10135;50.702;7.276;2024-01-06T13:10:58;9.93;;;6.50;;
19946;SDS011;10135;50.702;7.276;2024-01-06T13:12:59;12.00;;;6.60;;
19946;SDS011;10135;50.702;7.276;2024-01-06T13:14:59;10.43;;;6.70;;
19946;SDS011;10135;50.702;7.276;2024-01-06T13:17:00;8.70;;;6.67;;
19946;SDS011;10135;50.702;7.276;2024-01-06T13:19:02;12.53;;;7.50;;
19946;SDS011;10135;50.702;7.276;2024-01-06T13:21:03;10.50;;;7.03;;
19946;SDS011;10135;50.702;7.276;2024-01-06T13:23:04;11.97;;;7.30;;
19946;SDS011;10135;50.702;7.276;2024-01-06T13:25:06;14.50;;;7.20;;
19946;SDS011;10135;50.702;7.276;2024-01-06T13:27:08;11.73;;;7.70;;
19946;SDS011;10135;50.702;7.276;2024-01-06T13:29:09;13.60;;;8.00;;
19946;SDS011;10135;50.702;7.276;2024-01-06T13:31:09;10.73;;;6.80;;
19946;SDS011;10135;50.702;7.276;2024-01-06T13:33:10;12.37;;;7.20;;
19946;SDS011;10135;50.702;7.276;2024-01-06T13:35:11;12.23;;;7.57;;
19946;SDS011;10135;50.702;7.276;2024-01-06T13:37:12;13.87;;;8.00;;
19946;SDS011;10135;50.702;7.276;2024-01-06T13:39:12;13.47;;;7.47;;
19946;SDS011;10135;50.702;7.276;2024-01-06T13:41:20;14.37;;;7.97;;
19946;SDS011;10135;50.702;7.276;2024-01-06T13:43:21;14.30;;;8.27;;
19946;SDS011;10135;50.702;7.276;2024-01-06T13:45:22;12.90;;;7.73;;
19946;SDS011;10135;50.702;7.276;2024-01-06T13:47:23;15.70;;;8.00;;
19946;SDS011;10135;50.702;7.276;2024-01-06T13:49:24;14.97;;;8.40;;
19946;SDS011;10135;50.702;7.276;2024-01-06T13:51:25;14.23;;;8.47;;
19946;SDS011;10135;50.702;7.276;2024-01-06T13:53:25;14.33;;;8.30;;
19946;SDS011;10135;50.702;7.276;2024-01-06T13:55:26;12.63;;;7.70;;
19946;SDS011;10135;50.702;7.276;2024-01-06T13:57:27;15.80;;;8.60;;
19946;SDS011;10135;50.702;7.276;2024-01-06T13:59:27;13.93;;;8.50;;
19946;SDS011;10135;50.702;7.276;2024-01-06T14:01:28;11.60;;;7.67;;
19946;SDS011;10135;50.702;7.276;2024-01-06T14:03:30;13.70;;;8.07;;
19946;SDS011;10135;50.702;7.276;2024-01-06T14:05:31;12.13;;;7.50;;
19946;SDS011;10135;50.702;7.276;2024-01-06T14:07:33;12.47;;;7.70;;
19946;SDS011;10135;50.702;7.276;2024-01-06T14:09:35;10.47;;;7.17;;
19946;SDS011;10135;50.702;7.276;2024-01-06T14:11:36;13.97;;;7.80;;
19946;SDS011;10135;50.702;7.276;2024-01-06T14:13:37;12.93;;;7.43;;
19946;SDS011;10135;50.702;7.276;2024-01-06T14:15:37;10.87;;;7.10;;
19946;SDS011;10135;50.702;7.276;2024-01-06T14:17:38;13.60;;;7.20;;
19946;SDS011;10135;50.702;7.276;2024-01-06T14:19:40;10.60;;;6.83;;
19946;SDS011;10135;50.702;7.276;2024-01-06T14:21:42;9.40;;;6.37;;
19946;SDS011;10135;50.702;7.276;2024-01-06T14:23:42;11.03;;;6.70;;
19946;SDS011;10135;50.702;7.276;2024-01-06T14:25:43;10.60;;;6.43;;
19946;SDS011;10135;50.702;7.276;2024-01-06T14:27:44;12.20;;;6.43;;
19946;SDS011;10135;50.702;7.276;2024-01-06T14:29:46;9.73;;;6.70;;
19946;SDS011;10135;50.702;7.276;2024-01-06T14:31:46;11.03;;;6.00;;
19946;SDS011;10135;50.702;7.276;2024-01-06T14:33:48;10.37;;;6.40;;
19946;SDS011;10135;50.702;7.276;2024-01-06T14:35:49;9.87;;;6.30;;
19946;SDS011;10135;50.702;7.276;2024-01-06T14:37:49;9.63;;;6.60;;
19946;SDS011;10135;50.702;7.276;2024-01-06T14:39:52;8.63;;;5.63;;
19946;SDS011;10135;50.702;7.276;2024-01-06T14:41:53;8.93;;;5.67;;
19946;SDS011;10135;50.702;7.276;2024-01-06T14:43:54;7.87;;;5.23;;
19946;SDS011;10135;50.702;7.276;2024-01-06T14:45:55;9.37;;;5.63;;
19946;SDS011;10135;50.702;7.276;2024-01-06T14:47:56;9.57;;;5.63;;
19946;SDS011;10135;50.702;7.276;2024-01-06T14:49:56;6.73;;;4.93;;
19946;SDS011;10135;50.702;7.276;2024-01-06T14:51:57;7.97;;;5.23;;
19946;SDS011;10135;50.702;7.276;2024-01-06T14:53:57;7.40;;;5.00;;
19946;SDS011;10135;50.702;7.276;2024-01-06T14:55:58;7.87;;;5.47;;
19946;SDS011;10135;50.702;7.276;2024-01-06T14:58:01;7.00;;;4.80;;
19946;SDS011;10135;50.702;7.276;2024-01-06T15:00:02;6.57;;;4.70;;
19946;SDS011;10135;50.702;7.276;2024-01-06T15:02:04;6.97;;;4.60;;
19946;SDS011;10135;50.702;7.276;2024-01-06T15:04:06;6.80;;;4.50;;
19946;SDS011;10135;50.702;7.276;2024-01-06T15:06:06;7.47;;;4.60;;
19946;SDS011;10135;50.702;7.276;2024-01-06T15:08:08;5.93;;;4.60;;
19946;SDS011;10135;50.702;7.276;2024-01-06T15:10:08;6.67;;;4.53;;
19946;SDS011;10135;50.702;7.276;2024-01-06T15:12:10;5.00;;;4.20;;
19946;SDS011;10135;50.702;7.276;2024-01-06T15:14:11;6.20;;;4.30;;
19946;SDS011;10135;50.702;7.276;2024-01-06T15:16:12;6.77;;;4.43;;
19946;SDS011;10135;50.702;7.276;2024-01-06T15:18:13;6.73;;;4.77;;
19946;SDS011;10135;50.702;7.276;2024-01-06T15:20:13;8.13;;;5.17;;
19946;SDS011;10135;50.702;7.276;2024-01-06T15:22:14;9.13;;;5.70;;
19946;SDS011;10135;50.702;7.276;2024-01-06T15:24:16;9.80;;;5.47;;
19946;SDS011;10135;50.702;7.276;2024-01-06T15:26:21;10.37;;;6.00;;
19946;SDS011;10135;50.702;7.276;2024-01-06T15:28:23;11.20;;;6.67;;
19946;SDS011;10135;50.702;7.276;2024-01-06T15:30:24;9.63;;;6.10;;
19946;SDS011;10135;50.702;7.276;2024-01-06T15:32:24;10.73;;;6.70;;
19946;SDS011;10135;50.702;7.276;2024-01-06T15:34:25;10.27;;;6.40;;
19946;SDS011;10135;50.702;7.276;2024-01-06T15:36:26;16.40;;;8.37;;
19946;SDS011;10135;50.702;7.276;2024-01-06T15:38:26;13.87;;;8.03;;
19946;SDS011;10135;50.702;7.276;2024-01-06T15:40:27;11.33;;;6.73;;
19946;SDS011;10135;50.702;7.276;2024-01-06T15:42:28;13.63;;;7.03;;
19946;SDS011;10135;50.702;7.276;2024-01-06T15:44:29;11.73;;;6.70;;
19946;SDS011;10135;50.702;7.276;2024-01-06T15:46:33;13.00;;;7.00;;
19946;SDS011;10135;50.702;7.276;2024-01-06T15:48:33;12.43;;;7.17;;
19946;SDS011;10135;50.702;7.276;2024-01-06T15:50:36;14.07;;;7.60;;
19946;SDS011;10135;50.702;7.276;2024-01-06T15:52:36;17.90;;;8.43;;
19946;SDS011;10135;50.702;7.276;2024-01-06T15:54:37;14.53;;;7.67;;
19946;SDS011;10135;50.702;7.276;2024-01-06T15:56:38;13.93;;;7.80;;
19946;SDS011;10135;50.702;7.276;2024-01-06T15:58:38;15.40;;;8.17;;
19946;SDS011;10135;50.702;7.276;2024-01-06T16:00:39;15.37;;;8.43;;
19946;SDS011;10135;50.702;7.276;2024-01-06T16:02:40;15.90;;;8.83;;
19946;SDS011;10135;50.702;7.276;2024-01-06T16:04:40;16.87;;;9.07;;
19946;SDS011;10135;50.702;7.276;2024-01-06T16:06:41;15.83;;;9.53;;
19946;SDS011;10135;50.702;7.276;2024-01-06T16:08:41;17.03;;;9.50;;
19946;SDS011;10135;50.702;7.276;2024-01-06T16:10:42;18.57;;;10.00;;
19946;SDS011;10135;50.702;7.276;2024-01-06T16:12:43;15.57;;;9.10;;
19946;SDS011;10135;50.702;7.276;2024-01-06T16:14:43;15.17;;;8.60;;
19946;SDS011;10135;50.702;7.276;2024-01-06T16:16:44;17.03;;;9.17;;
19946;SDS011;10135;50.702;7.276;2024-01-06T16:18:44;14.53;;;8.10;;
19946;SDS011;10135;50.702;7.276;2024-01-06T16:20:46;15.60;;;8.30;;
19946;SDS011;10135;50.702;7.276;2024-01-06T16:22:47;13.47;;;7.50;;
19946;SDS011;10135;50.702;7.276;2024-01-06T16:24:50;13.27;;;7.93;;
19946;SDS011;10135;50.702;7.276;2024-01-06T16:26:51;12.97;;;7.80;;
19946;SDS011;10135;50.702;7.276;2024-01-06T16:28:52;13.37;;;7.77;;
19946;SDS011;10135;50.702;7.276;2024-01-06T16:30:53;17.77;;;8.40;;
19946;SDS011;10135;50.702;7.276;2024-01-06T16:32:54;13.80;;;7.87;;
19946;SDS011;10135;50.702;7.276;2024-01-06T16:34:54;12.10;;;7.33;;
19946;SDS011;10135;50.702;7.276;2024-01-06T16:36:55;13.97;;;7.50;;
19946;SDS011;10135;50.702;7.276;2024-01-06T16:38:56;13.50;;;7.97;;
19946;SDS011;10135;50.702;7.276;2024-01-06T16:40:56;13.53;;;7.57;;
19946;SDS011;10135;50.702;7.276;2024-01-06T16:42:57;13.20;;;8.23;;
19946;SDS011;10135;50.702;7.276;2024-01-06T16:44:58;15.30;;;8.17;;
19946;SDS011;10135;50.702;7.276;2024-01-06T16:46:58;14.57;;;8.37;;
19946;SDS011;10135;50.702;7.276;2024-01-06T16:48:59;25.50;;;12.03;;
19946;SDS011;10135;50.702;7.276;2024-01-06T16:51:00;16.70;;;8.40;;
19946;SDS011;10135;50.702;7.276;2024-01-06T16:53:00;16.37;;;8.20;;
19946;SDS011;10135;50.702;7.276;2024-01-06T16:55:01;15.33;;;8.30;;
19946;SDS011;10135;50.702;7.276;2024-01-06T16:57:02;14.60;;;8.00;;
19946;SDS011;10135;50.702;7.276;2024-01-06T16:59:03;14.17;;;8.20;;
19946;SDS011;10135;50.702;7.276;2024-01-06T17:01:04;15.80;;;8.67;;
19946;SDS011;10135;50.702;7.276;2024-01-06T17:03:05;12.57;;;7.60;;
19946;SDS011;10135;50.702;7.276;2024-01-06T17:05:07;15.00;;;8.13;;
19946;SDS011;10135;50.702;7.276;2024-01-06T17:07:08;14.07;;;7.70;;
19946;SDS011;10135;50.702;7.276;2024-01-06T17:09:09;11.00;;;6.90;;
19946;SDS011;10135;50.702;7.276;2024-01-06T17:11:11;15.17;;;7.47;;
19946;SDS011;10135;50.702;7.276;2024-01-06T17:13:12;11.23;;;6.80;;
19946;SDS011;10135;50.702;7.276;2024-01-06T17:15:13;12.37;;;7.43;;
19946;SDS011;10135;50.702;7.276;2024-01-06T17:17:13;14.73;;;8.03;;
19946;SDS011;10135;50.702;7.276;2024-01-06T17:19:14;12.00;;;7.47;;
19946;SDS011;10135;50.702;7.276;2024-01-06T17:21:15;12.63;;;7.90;;
19946;SDS011;10135;50.702;7.276;2024-01-06T17:23:17;13.67;;;7.83;;
19946;SDS011;10135;50.702;7.276;2024-01-06T17:25:18;12.07;;;7.60;;
19946;SDS011;10135;50.702;7.276;2024-01-06T17:27:18;14.57;;;8.47;;
19946;SDS011;10135;50.702;7.276;2024-01-06T17:29:19;14.07;;;7.77;;
19946;SDS011;10135;50.702;7.276;2024-01-06T17:31:20;12.27;;;7.80;;
19946;SDS011;10135;50.702;7.276;2024-01-06T17:33:20;16.10;;;8.10;;
19946;SDS011;10135;50.702;7.276;2024-01-06T17:35:21;13.57;;;7.60;;
19946;SDS011;10135;50.702;7.276;2024-01-06T17:37:22;15.07;;;8.53;;
19946;SDS011;10135;50.702;7.276;2024-01-06T17:39:22;14.27;;;7.93;;
19946;SDS011;10135;50.702;7.276;2024-01-06T17:41:24;13.87;;;8.17;;
19946;SDS011;10135;50.702;7.276;2024-01-06T17:43:25;11.57;;;7.70;;
19946;SDS011;10135;50.702;7.276;2024-01-06T17:45:25;12.60;;;7.33;;
19946;SDS011;10135;50.702;7.276;2024-01-06T17:47:26;11.67;;;7.47;;
19946;SDS011;10135;50.702;7.276;2024-01-06T17:49:26;11.93;;;7.30;;
19946;SDS011;10135;50.702;7.276;2024-01-06T17:51:27;10.73;;;7.10;;
19946;SDS011;10135;50.702;7.276;2024-01-06T17:53:29;13.63;;;8.00;;
19946;SDS011;10135;50.702;7.276;2024-01-06T17:55:29;11.97;;;7.20;;
19946;SDS011;10135;50.702;7.276;2024-01-06T17:57:30;11.93;;;7.53;;
19946;SDS011;10135;50.702;7.276;2024-01-06T17:59:34;13.17;;;8.17;;
19946;SDS011;10135;50.702;7.276;2024-01-06T18:01:35;14.00;;;8.33;;
19946;SDS011;10135;50.702;7.276;2024-01-06T18:03:36;12.97;;;8.00;;
19946;SDS011;10135;50.702;7.276;2024-01-06T18:05:37;13.50;;;8.10;;
19946;SDS011;10135;50.702;7.276;2024-01-06T18:07:38;13.33;;;8.10;;
19946;SDS011;10135;50.702;7.276;2024-01-06T18:09:39;12.03;;;7.30;;
19946;SDS011;10135;50.702;7.276;2024-01-06T18:11:39;12.53;;;7.90;;
19946;SDS011;10135;50.702;7.276;2024-01-06T18:13:41;15.53;;;8.20;;
19946;SDS011;10135;50.702;7.276;2024-01-06T18:15:42;12.77;;;7.57;;
19946;SDS011;10135;50.702;7.276;2024-01-06T18:17:42;13.23;;;8.47;;
19946;SDS011;10135;50.702;7.276;2024-01-06T18:19:43;11.63;;;8.00;;
19946;SDS011;10135;50.702;7.276;2024-01-06T18:21:44;14.10;;;8.20;;
19946;SDS011;10135;50.702;7.276;2024-01-06T18:23:44;14.87;;;8.23;;
19946;SDS011;10135;50.702;7.276;2024-01-06T18:25:45;14.10;;;8.17;;
19946;SDS011;10135;50.702;7.276;2024-01-06T18:27:46;14.90;;;8.30;;
19946;SDS011;10135;50.702;7.276;2024-01-06T18:29:46;12.63;;;7.77;;
19946;SDS011;10135;50.702;7.276;2024-01-06T18:31:48;14.70;;;8.60;;
19946;SDS011;10135;50.702;7.276;2024-01-06T18:33:49;15.77;;;9.17;;
19946;SDS011;10135;50.702;7.276;2024-01-06T18:35:50;16.03;;;9.43;;
19946;SDS011;10135;50.702;7.276;2024-01-06T18:37:50;18.27;;;11.53;;